PWSweather.com
Personal Weather Stations
Station Observations
NAGEO265NE
Bedzin GrodziecPL 42-506

Bedzin GrodziecPL 42-506

Lat: 50.347, Lon: 19.079

Elevation: 948

Station Type: WH1080

http://www.meteo-grodziec.pl/

High Low Average
Temperature 56.8°F13.8°C 43.3°F6.3°C 50.2°F10.1°C
Dew Point 43.5°F6.4°C 34.7°F1.5°C 38.8°F3.8°C
Winds 15.0 mph 24.1 kmh Calm Calm 6.0 mph WSW9.7 kmh WSW
Wind Gusts 33.0 mph53.1 kmh 2.0 mph3.2 kmh 15.0 mph24.1 kmh
Humidity 81% 46% 66%
Pressure 30.01 in1016.3 mb 29.73 in1006.8 mb -
Precipitation 0.00 in0.0 mm - -
Hour Temp Dew Point Humidity Winds Wind Gusts Pressure Precip Precip Rate Daily Precip Total
12:00 AM 50.2°F10.1°C 43.5°F6.4°C 78% 2.0 mph SW3.2 kmh SW 7.0 mph11.3 kmh 29.73 in1006.8 mb 0.00 in0.0 mm 0.00 in0.0 mm 0.00 in0.0 mm
12:05 AM 50.0°F10.0°C 43.3°F6.3°C 78% 2.0 mph SW3.2 kmh SW 7.0 mph11.3 kmh 29.73 in1006.8 mb 0.00 in0.0 mm 0.00 in0.0 mm 0.00 in0.0 mm
12:10 AM 50.0°F10.0°C 43.2°F6.2°C 77% 3.0 mph SW4.8 kmh SW 8.0 mph12.9 kmh 29.73 in1006.8 mb 0.00 in0.0 mm 0.00 in0.0 mm 0.00 in0.0 mm
12:15 AM 50.2°F10.1°C 43.2°F6.2°C 77% 4.0 mph SW6.4 kmh SW 11.0 mph17.7 kmh 29.74 in1007.1 mb 0.00 in0.0 mm 0.00 in0.0 mm 0.00 in0.0 mm
12:20 AM 50.0°F10.0°C 43.2°F6.2°C 77% 4.0 mph SW6.4 kmh SW 11.0 mph17.7 kmh 29.74 in1007.1 mb 0.00 in0.0 mm 0.00 in0.0 mm 0.00 in0.0 mm
12:25 AM 50.0°F10.0°C 43.2°F6.2°C 77% 4.0 mph SW6.4 kmh SW 10.0 mph16.1 kmh 29.74 in1007.1 mb 0.00 in0.0 mm 0.00 in0.0 mm 0.00 in0.0 mm
12:30 AM 50.0°F10.0°C 43.2°F6.2°C 77% 4.0 mph SW6.4 kmh SW 10.0 mph16.1 kmh 29.74 in1007.1 mb 0.00 in0.0 mm 0.00 in0.0 mm 0.00 in0.0 mm
12:35 AM 50.0°F10.0°C 42.8°F6.0°C 76% 5.0 mph SW8.0 kmh SW 14.0 mph22.5 kmh 29.75 in1007.5 mb 0.00 in0.0 mm 0.00 in0.0 mm 0.00 in0.0 mm
12:40 AM 50.0°F10.0°C 42.8°F6.0°C 76% 6.0 mph SW9.7 kmh SW 14.0 mph22.5 kmh 29.75 in1007.5 mb 0.00 in0.0 mm 0.00 in0.0 mm 0.00 in0.0 mm
12:45 AM 50.2°F10.1°C 42.8°F6.0°C 76% 6.0 mph SW9.7 kmh SW 13.0 mph20.9 kmh 29.75 in1007.5 mb 0.00 in0.0 mm 0.00 in0.0 mm 0.00 in0.0 mm
12:50 AM 50.0°F10.0°C 42.4°F5.8°C 75% 6.0 mph SW9.7 kmh SW 15.0 mph24.1 kmh 29.75 in1007.5 mb 0.00 in0.0 mm 0.00 in0.0 mm 0.00 in0.0 mm
12:55 AM 50.0°F10.0°C 42.4°F5.8°C 75% 6.0 mph SW9.7 kmh SW 15.0 mph24.1 kmh 29.75 in1007.5 mb 0.00 in0.0 mm 0.00 in0.0 mm 0.00 in0.0 mm
01:00 AM 49.8°F9.9°C 42.3°F5.7°C 75% 5.0 mph SW8.0 kmh SW 13.0 mph20.9 kmh 29.75 in1007.5 mb 0.00 in0.0 mm 0.00 in0.0 mm 0.00 in0.0 mm
01:05 AM 49.6°F9.8°C 42.1°F5.6°C 75% 5.0 mph SW8.0 kmh SW 13.0 mph20.9 kmh 29.75 in1007.5 mb 0.00 in0.0 mm 0.00 in0.0 mm 0.00 in0.0 mm
01:10 AM 49.5°F9.7°C 42.3°F5.7°C 76% 5.0 mph SW8.0 kmh SW 13.0 mph20.9 kmh 29.76 in1007.8 mb 0.00 in0.0 mm 0.00 in0.0 mm 0.00 in0.0 mm
01:15 AM 49.3°F9.6°C 42.1°F5.6°C 76% 6.0 mph SW9.7 kmh SW 13.0 mph20.9 kmh 29.76 in1007.8 mb 0.00 in0.0 mm 0.00 in0.0 mm 0.00 in0.0 mm
01:20 AM 49.3°F9.6°C 42.3°F5.7°C 77% 6.0 mph SW9.7 kmh SW 14.0 mph22.5 kmh 29.76 in1007.8 mb 0.00 in0.0 mm 0.00 in0.0 mm 0.00 in0.0 mm
01:25 AM 48.9°F9.4°C 42.3°F5.7°C 78% 6.0 mph SW9.7 kmh SW 16.0 mph25.7 kmh 29.77 in1008.1 mb 0.00 in0.0 mm 0.00 in0.0 mm 0.00 in0.0 mm
01:30 AM 48.7°F9.3°C 42.3°F5.7°C 78% 6.0 mph SW9.7 kmh SW 16.0 mph25.7 kmh 29.77 in1008.1 mb 0.00 in0.0 mm 0.00 in0.0 mm 0.00 in0.0 mm
01:35 AM 48.7°F9.3°C 42.4°F5.8°C 79% 6.0 mph SW9.7 kmh SW 14.0 mph22.5 kmh 29.77 in1008.1 mb 0.00 in0.0 mm 0.00 in0.0 mm 0.00 in0.0 mm
01:40 AM 48.6°F9.2°C 42.4°F5.8°C 79% 6.0 mph SW9.7 kmh SW 14.0 mph22.5 kmh 29.77 in1008.1 mb 0.00 in0.0 mm 0.00 in0.0 mm 0.00 in0.0 mm
01:45 AM 48.6°F9.2°C 42.3°F5.7°C 79% 6.0 mph SW9.7 kmh SW 13.0 mph20.9 kmh 29.77 in1008.1 mb 0.00 in0.0 mm 0.00 in0.0 mm 0.00 in0.0 mm
01:50 AM 48.4°F9.1°C 42.3°F5.7°C 79% 6.0 mph SW9.7 kmh SW 14.0 mph22.5 kmh 29.77 in1008.1 mb 0.00 in0.0 mm 0.00 in0.0 mm 0.00 in0.0 mm
01:55 AM 48.4°F9.1°C 42.3°F5.7°C 79% 6.0 mph SW9.7 kmh SW 14.0 mph22.5 kmh 29.77 in1008.1 mb 0.00 in0.0 mm 0.00 in0.0 mm 0.00 in0.0 mm
02:00 AM 48.4°F9.1°C 42.1°F5.6°C 79% 6.0 mph SW9.7 kmh SW 12.0 mph19.3 kmh 29.77 in1008.1 mb 0.00 in0.0 mm 0.00 in0.0 mm 0.00 in0.0 mm
02:05 AM 48.0°F8.9°C 41.9°F5.5°C 79% 5.0 mph SW8.0 kmh SW 14.0 mph22.5 kmh 29.77 in1008.1 mb 0.00 in0.0 mm 0.00 in0.0 mm 0.00 in0.0 mm
02:10 AM 48.0°F8.9°C 41.7°F5.4°C 79% 4.0 mph SW6.4 kmh SW 14.0 mph22.5 kmh 29.77 in1008.1 mb 0.00 in0.0 mm 0.00 in0.0 mm 0.00 in0.0 mm
02:15 AM 47.8°F8.8°C 41.7°F5.4°C 79% 3.0 mph SW4.8 kmh SW 9.0 mph14.5 kmh 29.77 in1008.1 mb 0.00 in0.0 mm 0.00 in0.0 mm 0.00 in0.0 mm
02:20 AM 47.8°F8.8°C 41.7°F5.4°C 79% 4.0 mph SW6.4 kmh SW 11.0 mph17.7 kmh 29.77 in1008.1 mb 0.00 in0.0 mm 0.00 in0.0 mm 0.00 in0.0 mm
02:25 AM 47.8°F8.8°C 41.7°F5.4°C 79% 5.0 mph SW8.0 kmh SW 11.0 mph17.7 kmh 29.77 in1008.1 mb 0.00 in0.0 mm 0.00 in0.0 mm 0.00 in0.0 mm
02:30 AM 47.8°F8.8°C 41.4°F5.2°C 78% 5.0 mph SW8.0 kmh SW 12.0 mph19.3 kmh 29.77 in1008.1 mb 0.00 in0.0 mm 0.00 in0.0 mm 0.00 in0.0 mm
02:35 AM 47.8°F8.8°C 41.4°F5.2°C 78% 4.0 mph SW6.4 kmh SW 12.0 mph19.3 kmh 29.77 in1008.1 mb 0.00 in0.0 mm 0.00 in0.0 mm 0.00 in0.0 mm
02:40 AM 47.8°F8.8°C 41.4°F5.2°C 78% 5.0 mph SW8.0 kmh SW 12.0 mph19.3 kmh 29.77 in1008.1 mb 0.00 in0.0 mm 0.00 in0.0 mm 0.00 in0.0 mm
02:45 AM 47.8°F8.8°C 41.4°F5.2°C 78% 4.0 mph SW6.4 kmh SW 12.0 mph19.3 kmh 29.77 in1008.1 mb 0.00 in0.0 mm 0.00 in0.0 mm 0.00 in0.0 mm
02:50 AM 47.8°F8.8°C 41.4°F5.2°C 78% 4.0 mph SW6.4 kmh SW 12.0 mph19.3 kmh 29.77 in1008.1 mb 0.00 in0.0 mm 0.00 in0.0 mm 0.00 in0.0 mm
02:55 AM 47.8°F8.8°C 41.0°F5.0°C 77% 5.0 mph SW8.0 kmh SW 11.0 mph17.7 kmh 29.77 in1008.1 mb 0.00 in0.0 mm 0.00 in0.0 mm 0.00 in0.0 mm
03:00 AM 47.7°F8.7°C 40.8°F4.9°C 77% 4.0 mph SW6.4 kmh SW 11.0 mph17.7 kmh 29.77 in1008.1 mb 0.00 in0.0 mm 0.00 in0.0 mm 0.00 in0.0 mm
03:05 AM 47.8°F8.8°C 41.0°F5.0°C 77% 5.0 mph SW8.0 kmh SW 16.0 mph25.7 kmh 29.77 in1008.1 mb 0.00 in0.0 mm 0.00 in0.0 mm 0.00 in0.0 mm
03:10 AM 47.8°F8.8°C 41.0°F5.0°C 77% 6.0 mph SW9.7 kmh SW 16.0 mph25.7 kmh 29.77 in1008.1 mb 0.00 in0.0 mm 0.00 in0.0 mm 0.00 in0.0 mm
03:15 AM 47.8°F8.8°C 40.6°F4.8°C 76% 6.0 mph SW9.7 kmh SW 11.0 mph17.7 kmh 29.77 in1008.1 mb 0.00 in0.0 mm 0.00 in0.0 mm 0.00 in0.0 mm
03:20 AM 47.7°F8.7°C 40.8°F4.9°C 77% 5.0 mph SW8.0 kmh SW 11.0 mph17.7 kmh 29.77 in1008.1 mb 0.00 in0.0 mm 0.00 in0.0 mm 0.00 in0.0 mm
03:25 AM 47.7°F8.7°C 40.5°F4.7°C 76% 5.0 mph SW8.0 kmh SW 12.0 mph19.3 kmh 29.77 in1008.1 mb 0.00 in0.0 mm 0.00 in0.0 mm 0.00 in0.0 mm
03:30 AM 47.7°F8.7°C 40.5°F4.7°C 76% 5.0 mph SW8.0 kmh SW 12.0 mph19.3 kmh 29.77 in1008.1 mb 0.00 in0.0 mm 0.00 in0.0 mm 0.00 in0.0 mm
03:35 AM 47.7°F8.7°C 40.8°F4.9°C 77% 5.0 mph SW8.0 kmh SW 11.0 mph17.7 kmh 29.77 in1008.1 mb 0.00 in0.0 mm 0.00 in0.0 mm 0.00 in0.0 mm
03:40 AM 47.7°F8.7°C 40.8°F4.9°C 77% 4.0 mph SW6.4 kmh SW 9.0 mph14.5 kmh 29.77 in1008.1 mb 0.00 in0.0 mm 0.00 in0.0 mm 0.00 in0.0 mm
03:45 AM 47.7°F8.7°C 40.8°F4.9°C 77% 4.0 mph SW6.4 kmh SW 10.0 mph16.1 kmh 29.77 in1008.1 mb 0.00 in0.0 mm 0.00 in0.0 mm 0.00 in0.0 mm
03:50 AM 47.7°F8.7°C 40.8°F4.9°C 77% 4.0 mph SW6.4 kmh SW 10.0 mph16.1 kmh 29.77 in1008.1 mb 0.00 in0.0 mm 0.00 in0.0 mm 0.00 in0.0 mm
03:55 AM 47.7°F8.7°C 40.5°F4.7°C 76% 5.0 mph SW8.0 kmh SW 16.0 mph25.7 kmh 29.77 in1008.1 mb 0.00 in0.0 mm 0.00 in0.0 mm 0.00 in0.0 mm
04:00 AM 47.7°F8.7°C 40.5°F4.7°C 76% 5.0 mph SW8.0 kmh SW 16.0 mph25.7 kmh 29.77 in1008.1 mb 0.00 in0.0 mm 0.00 in0.0 mm 0.00 in0.0 mm
04:05 AM 47.7°F8.7°C 40.5°F4.7°C 76% 4.0 mph SW6.4 kmh SW 12.0 mph19.3 kmh 29.77 in1008.1 mb 0.00 in0.0 mm 0.00 in0.0 mm 0.00 in0.0 mm
04:10 AM 47.7°F8.7°C 40.5°F4.7°C 76% 4.0 mph SW6.4 kmh SW 11.0 mph17.7 kmh 29.77 in1008.1 mb 0.00 in0.0 mm 0.00 in0.0 mm 0.00 in0.0 mm
04:15 AM 47.5°F8.6°C 40.3°F4.6°C 76% 4.0 mph SW6.4 kmh SW 8.0 mph12.9 kmh 29.77 in1008.1 mb 0.00 in0.0 mm 0.00 in0.0 mm 0.00 in0.0 mm
04:20 AM 47.5°F8.6°C 40.6°F4.8°C 77% 3.0 mph SW4.8 kmh SW 10.0 mph16.1 kmh 29.77 in1008.1 mb 0.00 in0.0 mm 0.00 in0.0 mm 0.00 in0.0 mm
04:25 AM 47.5°F8.6°C 40.6°F4.8°C 77% 4.0 mph SW6.4 kmh SW 13.0 mph20.9 kmh 29.77 in1008.1 mb 0.00 in0.0 mm 0.00 in0.0 mm 0.00 in0.0 mm
04:30 AM 47.5°F8.6°C 40.6°F4.8°C 77% 5.0 mph SW8.0 kmh SW 13.0 mph20.9 kmh 29.77 in1008.1 mb 0.00 in0.0 mm 0.00 in0.0 mm 0.00 in0.0 mm
04:35 AM 47.7°F8.7°C 40.8°F4.9°C 77% 6.0 mph SW9.7 kmh SW 13.0 mph20.9 kmh 29.77 in1008.1 mb 0.00 in0.0 mm 0.00 in0.0 mm 0.00 in0.0 mm
04:40 AM 47.7°F8.7°C 40.8°F4.9°C 77% 6.0 mph SW9.7 kmh SW 13.0 mph20.9 kmh 29.77 in1008.1 mb 0.00 in0.0 mm 0.00 in0.0 mm 0.00 in0.0 mm
04:45 AM 47.5°F8.6°C 40.6°F4.8°C 77% 5.0 mph SW8.0 kmh SW 12.0 mph19.3 kmh 29.77 in1008.1 mb 0.00 in0.0 mm 0.00 in0.0 mm 0.00 in0.0 mm
04:50 AM 47.7°F8.7°C 40.8°F4.9°C 77% 5.0 mph SW8.0 kmh SW 11.0 mph17.7 kmh 29.77 in1008.1 mb 0.00 in0.0 mm 0.00 in0.0 mm 0.00 in0.0 mm
04:55 AM 47.7°F8.7°C 40.8°F4.9°C 77% 5.0 mph SW8.0 kmh SW 11.0 mph17.7 kmh 29.78 in1008.5 mb 0.00 in0.0 mm 0.00 in0.0 mm 0.00 in0.0 mm
05:00 AM 47.7°F8.7°C 40.8°F4.9°C 77% 5.0 mph SW8.0 kmh SW 10.0 mph16.1 kmh 29.78 in1008.5 mb 0.00 in0.0 mm 0.00 in0.0 mm 0.00 in0.0 mm
05:05 AM 47.5°F8.6°C 40.6°F4.8°C 77% 5.0 mph SW8.0 kmh SW 9.0 mph14.5 kmh 29.78 in1008.5 mb 0.00 in0.0 mm 0.00 in0.0 mm 0.00 in0.0 mm
05:10 AM 47.5°F8.6°C 40.6°F4.8°C 77% 5.0 mph SW8.0 kmh SW 13.0 mph20.9 kmh 29.78 in1008.5 mb 0.00 in0.0 mm 0.00 in0.0 mm 0.00 in0.0 mm
05:15 AM 47.5°F8.6°C 41.0°F5.0°C 78% 6.0 mph SW9.7 kmh SW 14.0 mph22.5 kmh 29.77 in1008.1 mb 0.00 in0.0 mm 0.00 in0.0 mm 0.00 in0.0 mm
05:20 AM 47.5°F8.6°C 41.0°F5.0°C 78% 6.0 mph SW9.7 kmh SW 14.0 mph22.5 kmh 29.78 in1008.5 mb 0.00 in0.0 mm 0.00 in0.0 mm 0.00 in0.0 mm
05:25 AM 47.5°F8.6°C 41.0°F5.0°C 78% 6.0 mph SW9.7 kmh SW 15.0 mph24.1 kmh 29.78 in1008.5 mb 0.00 in0.0 mm 0.00 in0.0 mm 0.00 in0.0 mm
05:30 AM 47.5°F8.6°C 41.0°F5.0°C 78% 7.0 mph SW11.3 kmh SW 15.0 mph24.1 kmh 29.77 in1008.1 mb 0.00 in0.0 mm 0.00 in0.0 mm 0.00 in0.0 mm
05:35 AM 47.5°F8.6°C 41.2°F5.1°C 79% 6.0 mph SW9.7 kmh SW 14.0 mph22.5 kmh 29.78 in1008.5 mb 0.00 in0.0 mm 0.00 in0.0 mm 0.00 in0.0 mm
05:40 AM 47.5°F8.6°C 41.2°F5.1°C 79% 7.0 mph SW11.3 kmh SW 14.0 mph22.5 kmh 29.77 in1008.1 mb 0.00 in0.0 mm 0.00 in0.0 mm 0.00 in0.0 mm
05:45 AM 47.5°F8.6°C 41.2°F5.1°C 79% 7.0 mph SW11.3 kmh SW 19.0 mph30.6 kmh 29.77 in1008.1 mb 0.00 in0.0 mm 0.00 in0.0 mm 0.00 in0.0 mm
05:50 AM 47.5°F8.6°C 41.2°F5.1°C 79% 8.0 mph SW12.9 kmh SW 19.0 mph30.6 kmh 29.77 in1008.1 mb 0.00 in0.0 mm 0.00 in0.0 mm 0.00 in0.0 mm
05:55 AM 47.5°F8.6°C 41.2°F5.1°C 79% 9.0 mph SW14.5 kmh SW 17.0 mph27.4 kmh 29.77 in1008.1 mb 0.00 in0.0 mm 0.00 in0.0 mm 0.00 in0.0 mm
06:00 AM 47.5°F8.6°C 41.4°F5.2°C 79% 9.0 mph SW14.5 kmh SW 20.0 mph32.2 kmh 29.77 in1008.1 mb 0.00 in0.0 mm 0.00 in0.0 mm 0.00 in0.0 mm
06:05 AM 47.5°F8.6°C 41.4°F5.2°C 79% 10.0 mph SW16.1 kmh SW 22.0 mph35.4 kmh 29.76 in1007.8 mb 0.00 in0.0 mm 0.00 in0.0 mm 0.00 in0.0 mm
06:10 AM 47.5°F8.6°C 41.4°F5.2°C 79% 8.0 mph SW12.9 kmh SW 22.0 mph35.4 kmh 29.76 in1007.8 mb 0.00 in0.0 mm 0.00 in0.0 mm 0.00 in0.0 mm
06:15 AM 47.5°F8.6°C 41.4°F5.2°C 79% 8.0 mph SW12.9 kmh SW 17.0 mph27.4 kmh 29.76 in1007.8 mb 0.00 in0.0 mm 0.00 in0.0 mm 0.00 in0.0 mm
06:20 AM 47.5°F8.6°C 40.8°F4.9°C 78% 8.0 mph SW12.9 kmh SW 17.0 mph27.4 kmh 29.76 in1007.8 mb 0.00 in0.0 mm 0.00 in0.0 mm 0.00 in0.0 mm
06:25 AM 47.5°F8.6°C 40.8°F4.9°C 78% 7.0 mph SW11.3 kmh SW 14.0 mph22.5 kmh 29.76 in1007.8 mb 0.00 in0.0 mm 0.00 in0.0 mm 0.00 in0.0 mm
06:30 AM 47.5°F8.6°C 41.0°F5.0°C 78% 7.0 mph SW11.3 kmh SW 14.0 mph22.5 kmh 29.77 in1008.1 mb 0.00 in0.0 mm 0.00 in0.0 mm 0.00 in0.0 mm
06:35 AM 47.5°F8.6°C 40.8°F4.9°C 78% 7.0 mph SW11.3 kmh SW 14.0 mph22.5 kmh 29.77 in1008.1 mb 0.00 in0.0 mm 0.00 in0.0 mm 0.00 in0.0 mm
06:40 AM 47.3°F8.5°C 40.8°F4.9°C 78% 6.0 mph SW9.7 kmh SW 13.0 mph20.9 kmh 29.77 in1008.1 mb 0.00 in0.0 mm 0.00 in0.0 mm 0.00 in0.0 mm
06:45 AM 47.5°F8.6°C 40.8°F4.9°C 78% 7.0 mph SW11.3 kmh SW 15.0 mph24.1 kmh 29.77 in1008.1 mb 0.00 in0.0 mm 0.00 in0.0 mm 0.00 in0.0 mm
06:50 AM 47.5°F8.6°C 40.6°F4.8°C 77% 7.0 mph SW11.3 kmh SW 15.0 mph24.1 kmh 29.77 in1008.1 mb 0.00 in0.0 mm 0.00 in0.0 mm 0.00 in0.0 mm
06:55 AM 47.7°F8.7°C 40.8°F4.9°C 77% 7.0 mph SW11.3 kmh SW 14.0 mph22.5 kmh 29.77 in1008.1 mb 0.00 in0.0 mm 0.00 in0.0 mm 0.00 in0.0 mm
07:00 AM 47.7°F8.7°C 40.8°F4.9°C 77% 7.0 mph SW11.3 kmh SW 16.0 mph25.7 kmh 29.77 in1008.1 mb 0.00 in0.0 mm 0.00 in0.0 mm 0.00 in0.0 mm
07:05 AM 47.7°F8.7°C 40.8°F4.9°C 77% 7.0 mph SW11.3 kmh SW 17.0 mph27.4 kmh 29.77 in1008.1 mb 0.00 in0.0 mm 0.00 in0.0 mm 0.00 in0.0 mm
07:10 AM 47.7°F8.7°C 40.5°F4.7°C 76% 8.0 mph SW12.9 kmh SW 17.0 mph27.4 kmh 29.78 in1008.5 mb 0.00 in0.0 mm 0.00 in0.0 mm 0.00 in0.0 mm
07:15 AM 47.7°F8.7°C 40.1°F4.5°C 75% 7.0 mph SW11.3 kmh SW 14.0 mph22.5 kmh 29.78 in1008.5 mb 0.00 in0.0 mm 0.00 in0.0 mm 0.00 in0.0 mm
07:20 AM 47.8°F8.8°C 39.9°F4.4°C 74% 7.0 mph SW11.3 kmh SW 14.0 mph22.5 kmh 29.78 in1008.5 mb 0.00 in0.0 mm 0.00 in0.0 mm 0.00 in0.0 mm
07:25 AM 48.0°F8.9°C 40.1°F4.5°C 74% 7.0 mph SW11.3 kmh SW 15.0 mph24.1 kmh 29.78 in1008.5 mb 0.00 in0.0 mm 0.00 in0.0 mm 0.00 in0.0 mm
07:30 AM 48.0°F8.9°C 39.7°F4.3°C 73% 8.0 mph SW12.9 kmh SW 16.0 mph25.7 kmh 29.78 in1008.5 mb 0.00 in0.0 mm 0.00 in0.0 mm 0.00 in0.0 mm
07:35 AM 48.0°F8.9°C 39.7°F4.3°C 73% 8.0 mph SW12.9 kmh SW 18.0 mph29.0 kmh 29.78 in1008.5 mb 0.00 in0.0 mm 0.00 in0.0 mm 0.00 in0.0 mm
07:40 AM 48.0°F8.9°C 39.9°F4.4°C 73% 8.0 mph SW12.9 kmh SW 19.0 mph30.6 kmh 29.78 in1008.5 mb 0.00 in0.0 mm 0.00 in0.0 mm 0.00 in0.0 mm
07:45 AM 48.0°F8.9°C 39.9°F4.4°C 73% 8.0 mph SW12.9 kmh SW 19.0 mph30.6 kmh 29.78 in1008.5 mb 0.00 in0.0 mm 0.00 in0.0 mm 0.00 in0.0 mm
07:50 AM 48.2°F9.0°C 39.2°F4.0°C 71% 9.0 mph SW14.5 kmh SW 19.0 mph30.6 kmh 29.78 in1008.5 mb 0.00 in0.0 mm 0.00 in0.0 mm 0.00 in0.0 mm
07:55 AM 48.4°F9.1°C 39.7°F4.3°C 72% 9.0 mph SW14.5 kmh SW 19.0 mph30.6 kmh 29.78 in1008.5 mb 0.00 in0.0 mm 0.00 in0.0 mm 0.00 in0.0 mm
08:00 AM 48.4°F9.1°C 39.4°F4.1°C 71% 8.0 mph SW12.9 kmh SW 19.0 mph30.6 kmh 29.78 in1008.5 mb 0.00 in0.0 mm 0.00 in0.0 mm 0.00 in0.0 mm
08:05 AM 48.4°F9.1°C 39.7°F4.3°C 72% 8.0 mph SW12.9 kmh SW 18.0 mph29.0 kmh 29.78 in1008.5 mb 0.00 in0.0 mm 0.00 in0.0 mm 0.00 in0.0 mm
08:10 AM 48.6°F9.2°C 39.9°F4.4°C 72% 8.0 mph SW12.9 kmh SW 18.0 mph29.0 kmh 29.78 in1008.5 mb 0.00 in0.0 mm 0.00 in0.0 mm 0.00 in0.0 mm
08:15 AM 48.6°F9.2°C 40.3°F4.6°C 73% 8.0 mph SW12.9 kmh SW 15.0 mph24.1 kmh 29.78 in1008.5 mb 0.00 in0.0 mm 0.00 in0.0 mm 0.00 in0.0 mm
08:20 AM 48.7°F9.3°C 40.1°F4.5°C 72% 7.0 mph SW11.3 kmh SW 15.0 mph24.1 kmh 29.78 in1008.5 mb 0.00 in0.0 mm 0.00 in0.0 mm 0.00 in0.0 mm
08:25 AM 49.1°F9.5°C 40.5°F4.7°C 72% 8.0 mph SW12.9 kmh SW 17.0 mph27.4 kmh 29.79 in1008.8 mb 0.00 in0.0 mm 0.00 in0.0 mm 0.00 in0.0 mm
08:30 AM 49.5°F9.7°C 40.5°F4.7°C 71% 11.0 mph SW17.7 kmh SW 21.0 mph33.8 kmh 29.79 in1008.8 mb 0.00 in0.0 mm 0.00 in0.0 mm 0.00 in0.0 mm
08:35 AM 49.6°F9.8°C 40.3°F4.6°C 70% 11.0 mph SW17.7 kmh SW 21.0 mph33.8 kmh 29.79 in1008.8 mb 0.00 in0.0 mm 0.00 in0.0 mm 0.00 in0.0 mm
08:40 AM 50.2°F10.1°C 40.8°F4.9°C 70% 10.0 mph SW16.1 kmh SW 21.0 mph33.8 kmh 29.79 in1008.8 mb 0.00 in0.0 mm 0.00 in0.0 mm 0.00 in0.0 mm
08:45 AM 50.7°F10.4°C 40.5°F4.7°C 68% 10.0 mph SW16.1 kmh SW 20.0 mph32.2 kmh 29.79 in1008.8 mb 0.00 in0.0 mm 0.00 in0.0 mm 0.00 in0.0 mm
08:50 AM 51.3°F10.7°C 40.6°F4.8°C 67% 11.0 mph SW17.7 kmh SW 22.0 mph35.4 kmh 29.79 in1008.8 mb 0.00 in0.0 mm 0.00 in0.0 mm 0.00 in0.0 mm
08:55 AM 51.6°F10.9°C 41.0°F5.0°C 67% 11.0 mph SW17.7 kmh SW 22.0 mph35.4 kmh 29.79 in1008.8 mb 0.00 in0.0 mm 0.00 in0.0 mm 0.00 in0.0 mm
09:00 AM 52.2°F11.2°C 41.2°F5.1°C 66% 11.0 mph SW17.7 kmh SW 19.0 mph30.6 kmh 29.79 in1008.8 mb 0.00 in0.0 mm 0.00 in0.0 mm 0.00 in0.0 mm
09:05 AM 52.5°F11.4°C 41.2°F5.1°C 65% 9.0 mph SW14.5 kmh SW 20.0 mph32.2 kmh 29.79 in1008.8 mb 0.00 in0.0 mm 0.00 in0.0 mm 0.00 in0.0 mm
09:10 AM 52.0°F11.1°C 40.6°F4.8°C 65% 10.0 mph SW16.1 kmh SW 23.0 mph37.0 kmh 29.79 in1008.8 mb 0.00 in0.0 mm 0.00 in0.0 mm 0.00 in0.0 mm
09:15 AM 51.4°F10.8°C 40.1°F4.5°C 65% 12.0 mph SW19.3 kmh SW 25.0 mph40.2 kmh 29.79 in1008.8 mb 0.00 in0.0 mm 0.00 in0.0 mm 0.00 in0.0 mm
09:20 AM 51.3°F10.7°C 40.3°F4.6°C 66% 11.0 mph SW17.7 kmh SW 25.0 mph40.2 kmh 29.79 in1008.8 mb 0.00 in0.0 mm 0.00 in0.0 mm 0.00 in0.0 mm
09:25 AM 51.1°F10.6°C 40.1°F4.5°C 66% 10.0 mph SW16.1 kmh SW 21.0 mph33.8 kmh 29.80 in1009.1 mb 0.00 in0.0 mm 0.00 in0.0 mm 0.00 in0.0 mm
09:30 AM 51.1°F10.6°C 40.1°F4.5°C 66% 8.0 mph SW12.9 kmh SW 18.0 mph29.0 kmh 29.80 in1009.1 mb 0.00 in0.0 mm 0.00 in0.0 mm 0.00 in0.0 mm
09:35 AM 51.4°F10.8°C 40.5°F4.7°C 66% 8.0 mph SW12.9 kmh SW 18.0 mph29.0 kmh 29.80 in1009.1 mb 0.00 in0.0 mm 0.00 in0.0 mm 0.00 in0.0 mm
09:40 AM 52.0°F11.1°C 40.3°F4.6°C 64% 8.0 mph SW12.9 kmh SW 15.0 mph24.1 kmh 29.80 in1009.1 mb 0.00 in0.0 mm 0.00 in0.0 mm 0.00 in0.0 mm
09:45 AM 52.7°F11.5°C 40.5°F4.7°C 63% 8.0 mph SW12.9 kmh SW 23.0 mph37.0 kmh 29.79 in1008.8 mb 0.00 in0.0 mm 0.00 in0.0 mm 0.00 in0.0 mm
09:50 AM 52.9°F11.6°C 40.3°F4.6°C 62% 9.0 mph SW14.5 kmh SW 23.0 mph37.0 kmh 29.79 in1008.8 mb 0.00 in0.0 mm 0.00 in0.0 mm 0.00 in0.0 mm
09:55 AM 53.4°F11.9°C 40.3°F4.6°C 61% 10.0 mph SW16.1 kmh SW 24.0 mph38.6 kmh 29.79 in1008.8 mb 0.00 in0.0 mm 0.00 in0.0 mm 0.00 in0.0 mm
10:00 AM 53.8°F12.1°C 40.1°F4.5°C 60% 9.0 mph SW14.5 kmh SW 24.0 mph38.6 kmh 29.79 in1008.8 mb 0.00 in0.0 mm 0.00 in0.0 mm 0.00 in0.0 mm
10:05 AM 53.2°F11.8°C 39.2°F4.0°C 59% 10.0 mph SW16.1 kmh SW 29.0 mph46.7 kmh 29.80 in1009.1 mb 0.00 in0.0 mm 0.00 in0.0 mm 0.00 in0.0 mm
10:10 AM 52.9°F11.6°C 39.0°F3.9°C 59% 13.0 mph SW20.9 kmh SW 29.0 mph46.7 kmh 29.79 in1008.8 mb 0.00 in0.0 mm 0.00 in0.0 mm 0.00 in0.0 mm
10:15 AM 53.1°F11.7°C 39.0°F3.9°C 59% 11.0 mph SW17.7 kmh SW 25.0 mph40.2 kmh 29.79 in1008.8 mb 0.00 in0.0 mm 0.00 in0.0 mm 0.00 in0.0 mm
10:20 AM 53.6°F12.0°C 39.6°F4.2°C 59% 10.0 mph SW16.1 kmh SW 25.0 mph40.2 kmh 29.79 in1008.8 mb 0.00 in0.0 mm 0.00 in0.0 mm 0.00 in0.0 mm
10:25 AM 54.1°F12.3°C 39.6°F4.2°C 58% 9.0 mph SW14.5 kmh SW 24.0 mph38.6 kmh 29.79 in1008.8 mb 0.00 in0.0 mm 0.00 in0.0 mm 0.00 in0.0 mm
10:30 AM 54.0°F12.2°C 39.0°F3.9°C 57% 12.0 mph SW19.3 kmh SW 28.0 mph45.1 kmh 29.79 in1008.8 mb 0.00 in0.0 mm 0.00 in0.0 mm 0.00 in0.0 mm
10:35 AM 54.1°F12.3°C 39.2°F4.0°C 57% 13.0 mph SW20.9 kmh SW 28.0 mph45.1 kmh 29.79 in1008.8 mb 0.00 in0.0 mm 0.00 in0.0 mm 0.00 in0.0 mm
10:40 AM 54.5°F12.5°C 40.1°F4.5°C 58% 12.0 mph SW19.3 kmh SW 22.0 mph35.4 kmh 29.79 in1008.8 mb 0.00 in0.0 mm 0.00 in0.0 mm 0.00 in0.0 mm
10:45 AM 54.7°F12.6°C 39.4°F4.1°C 56% 13.0 mph SW20.9 kmh SW 27.0 mph43.5 kmh 29.79 in1008.8 mb 0.00 in0.0 mm 0.00 in0.0 mm 0.00 in0.0 mm
10:50 AM 55.2°F12.9°C 39.4°F4.1°C 55% 13.0 mph SW20.9 kmh SW 27.0 mph43.5 kmh 29.79 in1008.8 mb 0.00 in0.0 mm 0.00 in0.0 mm 0.00 in0.0 mm
10:55 AM 55.0°F12.8°C 39.6°F4.2°C 56% 12.0 mph SW19.3 kmh SW 32.0 mph51.5 kmh 29.80 in1009.1 mb 0.00 in0.0 mm 0.00 in0.0 mm 0.00 in0.0 mm
11:00 AM 54.9°F12.7°C 39.6°F4.2°C 56% 12.0 mph SW19.3 kmh SW 32.0 mph51.5 kmh 29.80 in1009.1 mb 0.00 in0.0 mm 0.00 in0.0 mm 0.00 in0.0 mm
11:05 AM 55.0°F12.8°C 39.6°F4.2°C 56% 10.0 mph SW16.1 kmh SW 22.0 mph35.4 kmh 29.80 in1009.1 mb 0.00 in0.0 mm 0.00 in0.0 mm 0.00 in0.0 mm
11:10 AM 54.5°F12.5°C 39.6°F4.2°C 57% 10.0 mph SW16.1 kmh SW 25.0 mph40.2 kmh 29.80 in1009.1 mb 0.00 in0.0 mm 0.00 in0.0 mm 0.00 in0.0 mm
11:15 AM 54.5°F12.5°C 40.1°F4.5°C 58% 11.0 mph SW17.7 kmh SW 25.0 mph40.2 kmh 29.80 in1009.1 mb 0.00 in0.0 mm 0.00 in0.0 mm 0.00 in0.0 mm
11:20 AM 54.7°F12.6°C 39.7°F4.3°C 57% 12.0 mph SW19.3 kmh SW 27.0 mph43.5 kmh 29.80 in1009.1 mb 0.00 in0.0 mm 0.00 in0.0 mm 0.00 in0.0 mm
11:25 AM 55.2°F12.9°C 39.9°F4.4°C 56% 11.0 mph SW17.7 kmh SW 27.0 mph43.5 kmh 29.80 in1009.1 mb 0.00 in0.0 mm 0.00 in0.0 mm 0.00 in0.0 mm
11:30 AM 55.8°F13.2°C 39.4°F4.1°C 54% 10.0 mph SW16.1 kmh SW 27.0 mph43.5 kmh 29.80 in1009.1 mb 0.00 in0.0 mm 0.00 in0.0 mm 0.00 in0.0 mm
11:35 AM 55.4°F13.0°C 39.0°F3.9°C 54% 13.0 mph SW20.9 kmh SW 27.0 mph43.5 kmh 29.80 in1009.1 mb 0.00 in0.0 mm 0.00 in0.0 mm 0.00 in0.0 mm
11:40 AM 55.4°F13.0°C 39.6°F4.2°C 55% 14.0 mph SW22.5 kmh SW 27.0 mph43.5 kmh 29.79 in1008.8 mb 0.00 in0.0 mm 0.00 in0.0 mm 0.00 in0.0 mm
11:45 AM 55.9°F13.3°C 39.6°F4.2°C 54% 11.0 mph SW17.7 kmh SW 25.0 mph40.2 kmh 29.80 in1009.1 mb 0.00 in0.0 mm 0.00 in0.0 mm 0.00 in0.0 mm
11:50 AM 55.8°F13.2°C 39.4°F4.1°C 54% 11.0 mph SW17.7 kmh SW 25.0 mph40.2 kmh 29.79 in1008.8 mb 0.00 in0.0 mm 0.00 in0.0 mm 0.00 in0.0 mm
11:55 AM 55.8°F13.2°C 38.8°F3.8°C 53% 12.0 mph SW19.3 kmh SW 30.0 mph48.3 kmh 29.79 in1008.8 mb 0.00 in0.0 mm 0.00 in0.0 mm 0.00 in0.0 mm
12:00 PM 55.6°F13.1°C 39.2°F4.0°C 54% 12.0 mph SW19.3 kmh SW 30.0 mph48.3 kmh 29.79 in1008.8 mb 0.00 in0.0 mm 0.00 in0.0 mm 0.00 in0.0 mm
12:05 PM 55.6°F13.1°C 39.2°F4.0°C 54% 10.0 mph SW16.1 kmh SW 21.0 mph33.8 kmh 29.80 in1009.1 mb 0.00 in0.0 mm 0.00 in0.0 mm 0.00 in0.0 mm
12:10 PM 55.8°F13.2°C 39.4°F4.1°C 54% 8.0 mph SW12.9 kmh SW 17.0 mph27.4 kmh 29.80 in1009.1 mb 0.00 in0.0 mm 0.00 in0.0 mm 0.00 in0.0 mm
12:15 PM 56.1°F13.4°C 40.1°F4.5°C 55% 7.0 mph WSW11.3 kmh WSW 21.0 mph33.8 kmh 29.80 in1009.1 mb 0.00 in0.0 mm 0.00 in0.0 mm 0.00 in0.0 mm
12:20 PM 55.9°F13.3°C 39.0°F3.9°C 53% 8.0 mph SW12.9 kmh SW 22.0 mph35.4 kmh 29.80 in1009.1 mb 0.00 in0.0 mm 0.00 in0.0 mm 0.00 in0.0 mm
12:25 PM 56.3°F13.5°C 38.8°F3.8°C 52% 10.0 mph SW16.1 kmh SW 25.0 mph40.2 kmh 29.80 in1009.1 mb 0.00 in0.0 mm 0.00 in0.0 mm 0.00 in0.0 mm
12:30 PM 56.1°F13.4°C 38.1°F3.4°C 51% 10.0 mph SW16.1 kmh SW 25.0 mph40.2 kmh 29.80 in1009.1 mb 0.00 in0.0 mm 0.00 in0.0 mm 0.00 in0.0 mm
12:35 PM 55.8°F13.2°C 37.9°F3.3°C 51% 10.0 mph SW16.1 kmh SW 24.0 mph38.6 kmh 29.80 in1009.1 mb 0.00 in0.0 mm 0.00 in0.0 mm 0.00 in0.0 mm
12:40 PM 55.6°F13.1°C 38.1°F3.4°C 52% 11.0 mph SW17.7 kmh SW 24.0 mph38.6 kmh 29.80 in1009.1 mb 0.00 in0.0 mm 0.00 in0.0 mm 0.00 in0.0 mm
12:45 PM 55.2°F12.9°C 36.9°F2.7°C 50% 11.0 mph SW17.7 kmh SW 25.0 mph40.2 kmh 29.80 in1009.1 mb 0.00 in0.0 mm 0.00 in0.0 mm 0.00 in0.0 mm
12:50 PM 55.2°F12.9°C 37.9°F3.3°C 52% 10.0 mph WSW16.1 kmh WSW 25.0 mph40.2 kmh 29.80 in1009.1 mb 0.00 in0.0 mm 0.00 in0.0 mm 0.00 in0.0 mm
12:55 PM 55.2°F12.9°C 37.4°F3.0°C 51% 11.0 mph SW17.7 kmh SW 27.0 mph43.5 kmh 29.80 in1009.1 mb 0.00 in0.0 mm 0.00 in0.0 mm 0.00 in0.0 mm
01:00 PM 55.0°F12.8°C 37.8°F3.2°C 52% 15.0 mph SW24.1 kmh SW 27.0 mph43.5 kmh 29.80 in1009.1 mb 0.00 in0.0 mm 0.00 in0.0 mm 0.00 in0.0 mm
01:05 PM 54.9°F12.7°C 37.6°F3.1°C 52% 15.0 mph SW24.1 kmh SW 31.0 mph49.9 kmh 29.80 in1009.1 mb 0.00 in0.0 mm 0.00 in0.0 mm 0.00 in0.0 mm
01:10 PM 55.0°F12.8°C 37.8°F3.2°C 52% 14.0 mph SW22.5 kmh SW 31.0 mph49.9 kmh 29.80 in1009.1 mb 0.00 in0.0 mm 0.00 in0.0 mm 0.00 in0.0 mm
01:15 PM 55.0°F12.8°C 37.8°F3.2°C 52% 15.0 mph SW24.1 kmh SW 31.0 mph49.9 kmh 29.80 in1009.1 mb 0.00 in0.0 mm 0.00 in0.0 mm 0.00 in0.0 mm
01:20 PM 55.0°F12.8°C 37.8°F3.2°C 52% 15.0 mph SW24.1 kmh SW 25.0 mph40.2 kmh 29.81 in1009.5 mb 0.00 in0.0 mm 0.00 in0.0 mm 0.00 in0.0 mm
01:25 PM 54.9°F12.7°C 37.0°F2.8°C 51% 14.0 mph SW22.5 kmh SW 25.0 mph40.2 kmh 29.81 in1009.5 mb 0.00 in0.0 mm 0.00 in0.0 mm 0.00 in0.0 mm
01:30 PM 55.6°F13.1°C 38.1°F3.4°C 52% 12.0 mph SW19.3 kmh SW 24.0 mph38.6 kmh 29.81 in1009.5 mb 0.00 in0.0 mm 0.00 in0.0 mm 0.00 in0.0 mm
01:35 PM 56.1°F13.4°C 37.8°F3.2°C 50% 11.0 mph SW17.7 kmh SW 24.0 mph38.6 kmh 29.81 in1009.5 mb 0.00 in0.0 mm 0.00 in0.0 mm 0.00 in0.0 mm
01:40 PM 55.9°F13.3°C 37.0°F2.8°C 49% 11.0 mph SW17.7 kmh SW 33.0 mph53.1 kmh 29.82 in1009.8 mb 0.00 in0.0 mm 0.00 in0.0 mm 0.00 in0.0 mm
01:45 PM 55.8°F13.2°C 36.9°F2.7°C 49% 12.0 mph SW19.3 kmh SW 33.0 mph53.1 kmh 29.81 in1009.5 mb 0.00 in0.0 mm 0.00 in0.0 mm 0.00 in0.0 mm
01:50 PM 55.6°F13.1°C 36.7°F2.6°C 49% 11.0 mph WSW17.7 kmh WSW 22.0 mph35.4 kmh 29.82 in1009.8 mb 0.00 in0.0 mm 0.00 in0.0 mm 0.00 in0.0 mm
01:55 PM 55.6°F13.1°C 36.1°F2.3°C 48% 10.0 mph SW16.1 kmh SW 22.0 mph35.4 kmh 29.82 in1009.8 mb 0.00 in0.0 mm 0.00 in0.0 mm 0.00 in0.0 mm
02:00 PM 55.6°F13.1°C 36.1°F2.3°C 48% 10.0 mph SW16.1 kmh SW 23.0 mph37.0 kmh 29.82 in1009.8 mb 0.00 in0.0 mm 0.00 in0.0 mm 0.00 in0.0 mm
02:05 PM 55.6°F13.1°C 36.7°F2.6°C 49% 9.0 mph WSW14.5 kmh WSW 23.0 mph37.0 kmh 29.82 in1009.8 mb 0.00 in0.0 mm 0.00 in0.0 mm 0.00 in0.0 mm
02:10 PM 55.6°F13.1°C 36.7°F2.6°C 49% 8.0 mph WSW12.9 kmh WSW 20.0 mph32.2 kmh 29.82 in1009.8 mb 0.00 in0.0 mm 0.00 in0.0 mm 0.00 in0.0 mm
02:15 PM 55.8°F13.2°C 35.8°F2.1°C 47% 8.0 mph WSW12.9 kmh WSW 27.0 mph43.5 kmh 29.82 in1009.8 mb 0.00 in0.0 mm 0.00 in0.0 mm 0.00 in0.0 mm
02:20 PM 55.8°F13.2°C 35.8°F2.1°C 47% 10.0 mph WSW16.1 kmh WSW 27.0 mph43.5 kmh 29.82 in1009.8 mb 0.00 in0.0 mm 0.00 in0.0 mm 0.00 in0.0 mm
02:25 PM 55.9°F13.3°C 36.0°F2.2°C 47% 10.0 mph SW16.1 kmh SW 22.0 mph35.4 kmh 29.82 in1009.8 mb 0.00 in0.0 mm 0.00 in0.0 mm 0.00 in0.0 mm
02:30 PM 56.1°F13.4°C 36.1°F2.3°C 47% 8.0 mph WSW12.9 kmh WSW 22.0 mph35.4 kmh 29.82 in1009.8 mb 0.00 in0.0 mm 0.00 in0.0 mm 0.00 in0.0 mm
02:35 PM 56.7°F13.7°C 37.0°F2.8°C 48% 6.0 mph WSW9.7 kmh WSW 19.0 mph30.6 kmh 29.82 in1009.8 mb 0.00 in0.0 mm 0.00 in0.0 mm 0.00 in0.0 mm
02:40 PM 56.8°F13.8°C 36.9°F2.7°C 47% 6.0 mph WSW9.7 kmh WSW 19.0 mph30.6 kmh 29.82 in1009.8 mb 0.00 in0.0 mm 0.00 in0.0 mm 0.00 in0.0 mm
02:45 PM 56.7°F13.7°C 36.5°F2.5°C 47% 8.0 mph WSW12.9 kmh WSW 21.0 mph33.8 kmh 29.82 in1009.8 mb 0.00 in0.0 mm 0.00 in0.0 mm 0.00 in0.0 mm
02:50 PM 56.3°F13.5°C 36.3°F2.4°C 47% 9.0 mph WSW14.5 kmh WSW 23.0 mph37.0 kmh 29.82 in1009.8 mb 0.00 in0.0 mm 0.00 in0.0 mm 0.00 in0.0 mm
02:55 PM 56.1°F13.4°C 36.7°F2.6°C 48% 10.0 mph SW16.1 kmh SW 23.0 mph37.0 kmh 29.82 in1009.8 mb 0.00 in0.0 mm 0.00 in0.0 mm 0.00 in0.0 mm
03:00 PM 56.1°F13.4°C 37.2°F2.9°C 49% 9.0 mph SW14.5 kmh SW 20.0 mph32.2 kmh 29.82 in1009.8 mb 0.00 in0.0 mm 0.00 in0.0 mm 0.00 in0.0 mm
03:05 PM 55.9°F13.3°C 36.5°F2.5°C 48% 10.0 mph SW16.1 kmh SW 24.0 mph38.6 kmh 29.82 in1009.8 mb 0.00 in0.0 mm 0.00 in0.0 mm 0.00 in0.0 mm
03:10 PM 56.1°F13.4°C 36.7°F2.6°C 48% 11.0 mph SW17.7 kmh SW 24.0 mph38.6 kmh 29.82 in1009.8 mb 0.00 in0.0 mm 0.00 in0.0 mm 0.00 in0.0 mm
03:15 PM 56.3°F13.5°C 36.9°F2.7°C 48% 8.0 mph SW12.9 kmh SW 19.0 mph30.6 kmh 29.82 in1009.8 mb 0.00 in0.0 mm 0.00 in0.0 mm 0.00 in0.0 mm
03:20 PM 56.1°F13.4°C 36.7°F2.6°C 48% 9.0 mph SW14.5 kmh SW 20.0 mph32.2 kmh 29.82 in1009.8 mb 0.00 in0.0 mm 0.00 in0.0 mm 0.00 in0.0 mm
03:25 PM 56.3°F13.5°C 36.9°F2.7°C 48% 10.0 mph SW16.1 kmh SW 23.0 mph37.0 kmh 29.82 in1009.8 mb 0.00 in0.0 mm 0.00 in0.0 mm 0.00 in0.0 mm
03:30 PM 56.1°F13.4°C 36.7°F2.6°C 48% 10.0 mph SW16.1 kmh SW 23.0 mph37.0 kmh 29.82 in1009.8 mb 0.00 in0.0 mm 0.00 in0.0 mm 0.00 in0.0 mm
03:35 PM 56.3°F13.5°C 36.9°F2.7°C 48% 10.0 mph SW16.1 kmh SW 24.0 mph38.6 kmh 29.82 in1009.8 mb 0.00 in0.0 mm 0.00 in0.0 mm 0.00 in0.0 mm
03:40 PM 56.3°F13.5°C 35.8°F2.1°C 46% 9.0 mph SW14.5 kmh SW 24.0 mph38.6 kmh 29.82 in1009.8 mb 0.00 in0.0 mm 0.00 in0.0 mm 0.00 in0.0 mm
03:45 PM 56.1°F13.4°C 36.1°F2.3°C 47% 9.0 mph SW14.5 kmh SW 24.0 mph38.6 kmh 29.82 in1009.8 mb 0.00 in0.0 mm 0.00 in0.0 mm 0.00 in0.0 mm
03:50 PM 55.6°F13.1°C 36.1°F2.3°C 48% 9.0 mph SW14.5 kmh SW 19.0 mph30.6 kmh 29.83 in1010.2 mb 0.00 in0.0 mm 0.00 in0.0 mm 0.00 in0.0 mm
03:55 PM 54.9°F12.7°C 36.5°F2.5°C 50% 8.0 mph SW12.9 kmh SW 19.0 mph30.6 kmh 29.83 in1010.2 mb 0.00 in0.0 mm 0.00 in0.0 mm 0.00 in0.0 mm
04:00 PM 54.3°F12.4°C 36.0°F2.2°C 50% 7.0 mph SW11.3 kmh SW 17.0 mph27.4 kmh 29.83 in1010.2 mb 0.00 in0.0 mm 0.00 in0.0 mm 0.00 in0.0 mm
04:05 PM 54.0°F12.2°C 35.6°F2.0°C 50% 8.0 mph SW12.9 kmh SW 20.0 mph32.2 kmh 29.84 in1010.5 mb 0.00 in0.0 mm 0.00 in0.0 mm 0.00 in0.0 mm
04:10 PM 53.1°F11.7°C 37.2°F2.9°C 55% 9.0 mph WSW14.5 kmh WSW 22.0 mph35.4 kmh 29.83 in1010.2 mb 0.00 in0.0 mm 0.00 in0.0 mm 0.00 in0.0 mm
04:15 PM 52.7°F11.5°C 37.0°F2.8°C 55% 6.0 mph WSW9.7 kmh WSW 22.0 mph35.4 kmh 29.84 in1010.5 mb 0.00 in0.0 mm 0.00 in0.0 mm 0.00 in0.0 mm
04:20 PM 52.3°F11.3°C 37.6°F3.1°C 57% 5.0 mph W8.0 kmh W 19.0 mph30.6 kmh 29.84 in1010.5 mb 0.00 in0.0 mm 0.00 in0.0 mm 0.00 in0.0 mm
04:25 PM 52.2°F11.2°C 37.0°F2.8°C 56% 5.0 mph W8.0 kmh W 19.0 mph30.6 kmh 29.84 in1010.5 mb 0.00 in0.0 mm 0.00 in0.0 mm 0.00 in0.0 mm
04:30 PM 52.2°F11.2°C 37.0°F2.8°C 56% 2.0 mph WSW3.2 kmh WSW 8.0 mph12.9 kmh 29.84 in1010.5 mb 0.00 in0.0 mm 0.00 in0.0 mm 0.00 in0.0 mm
04:35 PM 52.2°F11.2°C 37.0°F2.8°C 56% 2.0 mph WSW3.2 kmh WSW 6.0 mph9.7 kmh 29.84 in1010.5 mb 0.00 in0.0 mm 0.00 in0.0 mm 0.00 in0.0 mm
04:40 PM 52.3°F11.3°C 36.7°F2.6°C 55% 1.0 mph W1.6 kmh W 6.0 mph9.7 kmh 29.84 in1010.5 mb 0.00 in0.0 mm 0.00 in0.0 mm 0.00 in0.0 mm
04:45 PM 52.5°F11.4°C 36.3°F2.4°C 54% 2.0 mph W3.2 kmh W 7.0 mph11.3 kmh 29.84 in1010.5 mb 0.00 in0.0 mm 0.00 in0.0 mm 0.00 in0.0 mm
04:50 PM 52.5°F11.4°C 36.0°F2.2°C 53% 3.0 mph WSW4.8 kmh WSW 8.0 mph12.9 kmh 29.84 in1010.5 mb 0.00 in0.0 mm 0.00 in0.0 mm 0.00 in0.0 mm
04:55 PM 52.7°F11.5°C 36.0°F2.2°C 53% 3.0 mph WSW4.8 kmh WSW 8.0 mph12.9 kmh 29.84 in1010.5 mb 0.00 in0.0 mm 0.00 in0.0 mm 0.00 in0.0 mm
05:00 PM 52.5°F11.4°C 36.0°F2.2°C 53% 2.0 mph WSW3.2 kmh WSW 6.0 mph9.7 kmh 29.85 in1010.8 mb 0.00 in0.0 mm 0.00 in0.0 mm 0.00 in0.0 mm
05:05 PM 52.3°F11.3°C 35.8°F2.1°C 53% 1.0 mph WSW1.6 kmh WSW 6.0 mph9.7 kmh 29.85 in1010.8 mb 0.00 in0.0 mm 0.00 in0.0 mm 0.00 in0.0 mm
05:10 PM 52.3°F11.3°C 35.6°F2.0°C 53% 1.0 mph WSW1.6 kmh WSW 9.0 mph14.5 kmh 29.85 in1010.8 mb 0.00 in0.0 mm 0.00 in0.0 mm 0.00 in0.0 mm
05:15 PM 52.2°F11.2°C 35.6°F2.0°C 53% 2.0 mph WSW3.2 kmh WSW 11.0 mph17.7 kmh 29.85 in1010.8 mb 0.00 in0.0 mm 0.00 in0.0 mm 0.00 in0.0 mm
05:20 PM 52.2°F11.2°C 35.1°F1.7°C 52% 2.0 mph WSW3.2 kmh WSW 11.0 mph17.7 kmh 29.86 in1011.2 mb 0.00 in0.0 mm 0.00 in0.0 mm 0.00 in0.0 mm
05:25 PM 52.0°F11.1°C 34.9°F1.6°C 52% 2.0 mph WSW3.2 kmh WSW 8.0 mph12.9 kmh 29.86 in1011.2 mb 0.00 in0.0 mm 0.00 in0.0 mm 0.00 in0.0 mm
05:30 PM 52.0°F11.1°C 34.9°F1.6°C 52% 2.0 mph W3.2 kmh W 9.0 mph14.5 kmh 29.87 in1011.5 mb 0.00 in0.0 mm 0.00 in0.0 mm 0.00 in0.0 mm
05:35 PM 51.8°F11.0°C 34.7°F1.5°C 52% 2.0 mph WNW3.2 kmh WNW 9.0 mph14.5 kmh 29.87 in1011.5 mb 0.00 in0.0 mm 0.00 in0.0 mm 0.00 in0.0 mm
05:40 PM 51.6°F10.9°C 35.1°F1.7°C 53% 1.0 mph W1.6 kmh W 7.0 mph11.3 kmh 29.87 in1011.5 mb 0.00 in0.0 mm 0.00 in0.0 mm 0.00 in0.0 mm
05:45 PM 51.4°F10.8°C 35.2°F1.8°C 54% 1.0 mph WNW1.6 kmh WNW 6.0 mph9.7 kmh 29.87 in1011.5 mb 0.00 in0.0 mm 0.00 in0.0 mm 0.00 in0.0 mm
05:50 PM 51.1°F10.6°C 35.1°F1.7°C 54% 1.0 mph W1.6 kmh W 5.0 mph8.0 kmh 29.88 in1011.9 mb 0.00 in0.0 mm 0.00 in0.0 mm 0.00 in0.0 mm
05:55 PM 51.1°F10.6°C 35.4°F1.9°C 55% 1.0 mph W1.6 kmh W 5.0 mph8.0 kmh 29.88 in1011.9 mb 0.00 in0.0 mm 0.00 in0.0 mm 0.00 in0.0 mm
06:00 PM 50.9°F10.5°C 35.2°F1.8°C 55% 1.0 mph WSW1.6 kmh WSW 5.0 mph8.0 kmh 29.88 in1011.9 mb 0.00 in0.0 mm 0.00 in0.0 mm 0.00 in0.0 mm
06:05 PM 50.7°F10.4°C 35.6°F2.0°C 56% 1.0 mph WSW1.6 kmh WSW 5.0 mph8.0 kmh 29.88 in1011.9 mb 0.00 in0.0 mm 0.00 in0.0 mm 0.00 in0.0 mm
06:10 PM 50.4°F10.2°C 35.8°F2.1°C 57% 1.0 mph WSW1.6 kmh WSW 5.0 mph8.0 kmh 29.88 in1011.9 mb 0.00 in0.0 mm 0.00 in0.0 mm 0.00 in0.0 mm
06:15 PM 50.2°F10.1°C 36.0°F2.2°C 58% 1.0 mph WSW1.6 kmh WSW 5.0 mph8.0 kmh 29.89 in1012.2 mb 0.00 in0.0 mm 0.00 in0.0 mm 0.00 in0.0 mm
06:20 PM 50.2°F10.1°C 36.3°F2.4°C 59% 1.0 mph WSW1.6 kmh WSW 5.0 mph8.0 kmh 29.89 in1012.2 mb 0.00 in0.0 mm 0.00 in0.0 mm 0.00 in0.0 mm
06:25 PM 50.0°F10.0°C 36.1°F2.3°C 59% 1.0 mph WSW1.6 kmh WSW 4.0 mph6.4 kmh 29.89 in1012.2 mb 0.00 in0.0 mm 0.00 in0.0 mm 0.00 in0.0 mm
06:30 PM 49.8°F9.9°C 36.0°F2.2°C 59% 1.0 mph WSW1.6 kmh WSW 5.0 mph8.0 kmh 29.89 in1012.2 mb 0.00 in0.0 mm 0.00 in0.0 mm 0.00 in0.0 mm
06:35 PM 49.6°F9.8°C 36.3°F2.4°C 60% 1.0 mph WSW1.6 kmh WSW 5.0 mph8.0 kmh 29.89 in1012.2 mb 0.00 in0.0 mm 0.00 in0.0 mm 0.00 in0.0 mm
06:40 PM 49.5°F9.7°C 36.1°F2.3°C 60% 1.0 mph WSW1.6 kmh WSW 5.0 mph8.0 kmh 29.89 in1012.2 mb 0.00 in0.0 mm 0.00 in0.0 mm 0.00 in0.0 mm
06:45 PM 49.3°F9.6°C 36.0°F2.2°C 60% 1.0 mph WSW1.6 kmh WSW 5.0 mph8.0 kmh 29.89 in1012.2 mb 0.00 in0.0 mm 0.00 in0.0 mm 0.00 in0.0 mm
06:50 PM 48.9°F9.4°C 35.8°F2.1°C 60% 1.0 mph WSW1.6 kmh WSW 4.0 mph6.4 kmh 29.89 in1012.2 mb 0.00 in0.0 mm 0.00 in0.0 mm 0.00 in0.0 mm
06:55 PM 48.9°F9.4°C 36.0°F2.2°C 61% 1.0 mph WSW1.6 kmh WSW 3.0 mph4.8 kmh 29.90 in1012.5 mb 0.00 in0.0 mm 0.00 in0.0 mm 0.00 in0.0 mm
07:00 PM 48.7°F9.3°C 35.8°F2.1°C 61% 1.0 mph WSW1.6 kmh WSW 3.0 mph4.8 kmh 29.90 in1012.5 mb 0.00 in0.0 mm 0.00 in0.0 mm 0.00 in0.0 mm
07:05 PM 48.4°F9.1°C 36.0°F2.2°C 62% 1.0 mph WSW1.6 kmh WSW 3.0 mph4.8 kmh 29.90 in1012.5 mb 0.00 in0.0 mm 0.00 in0.0 mm 0.00 in0.0 mm
07:10 PM 48.2°F9.0°C 36.1°F2.3°C 63% Calm Calm 3.0 mph4.8 kmh 29.90 in1012.5 mb 0.00 in0.0 mm 0.00 in0.0 mm 0.00 in0.0 mm
07:15 PM 47.8°F8.8°C 36.0°F2.2°C 63% Calm Calm 2.0 mph3.2 kmh 29.91 in1012.9 mb 0.00 in0.0 mm 0.00 in0.0 mm 0.00 in0.0 mm
07:20 PM 47.7°F8.7°C 36.1°F2.3°C 64% Calm Calm 2.0 mph3.2 kmh 29.91 in1012.9 mb 0.00 in0.0 mm 0.00 in0.0 mm 0.00 in0.0 mm
07:25 PM 47.5°F8.6°C 36.0°F2.2°C 64% Calm Calm 2.0 mph3.2 kmh 29.91 in1012.9 mb 0.00 in0.0 mm 0.00 in0.0 mm 0.00 in0.0 mm
07:30 PM 47.5°F8.6°C 36.0°F2.2°C 64% Calm Calm 2.0 mph3.2 kmh 29.91 in1012.9 mb 0.00 in0.0 mm 0.00 in0.0 mm 0.00 in0.0 mm
07:35 PM 47.5°F8.6°C 36.0°F2.2°C 64% Calm Calm 3.0 mph4.8 kmh 29.91 in1012.9 mb 0.00 in0.0 mm 0.00 in0.0 mm 0.00 in0.0 mm
07:40 PM 47.5°F8.6°C 36.0°F2.2°C 64% Calm Calm 3.0 mph4.8 kmh 29.91 in1012.9 mb 0.00 in0.0 mm 0.00 in0.0 mm 0.00 in0.0 mm
07:45 PM 47.7°F8.7°C 36.0°F2.2°C 64% Calm Calm 3.0 mph4.8 kmh 29.91 in1012.9 mb 0.00 in0.0 mm 0.00 in0.0 mm 0.00 in0.0 mm
07:50 PM 47.7°F8.7°C 36.0°F2.2°C 64% Calm Calm 4.0 mph6.4 kmh 29.91 in1012.9 mb 0.00 in0.0 mm 0.00 in0.0 mm 0.00 in0.0 mm
07:55 PM 47.7°F8.7°C 36.0°F2.2°C 64% Calm Calm 4.0 mph6.4 kmh 29.92 in1013.2 mb 0.00 in0.0 mm 0.00 in0.0 mm 0.00 in0.0 mm
08:00 PM 47.7°F8.7°C 36.1°F2.3°C 64% Calm Calm 3.0 mph4.8 kmh 29.92 in1013.2 mb 0.00 in0.0 mm 0.00 in0.0 mm 0.00 in0.0 mm
08:05 PM 47.8°F8.8°C 36.1°F2.3°C 64% Calm Calm 3.0 mph4.8 kmh 29.92 in1013.2 mb 0.00 in0.0 mm 0.00 in0.0 mm 0.00 in0.0 mm
08:10 PM 47.8°F8.8°C 36.1°F2.3°C 64% Calm Calm 4.0 mph6.4 kmh 29.93 in1013.5 mb 0.00 in0.0 mm 0.00 in0.0 mm 0.00 in0.0 mm
08:15 PM 48.0°F8.9°C 36.3°F2.4°C 64% Calm Calm 4.0 mph6.4 kmh 29.93 in1013.5 mb 0.00 in0.0 mm 0.00 in0.0 mm 0.00 in0.0 mm
08:20 PM 48.0°F8.9°C 36.3°F2.4°C 64% 1.0 mph WSW1.6 kmh WSW 4.0 mph6.4 kmh 29.93 in1013.5 mb 0.00 in0.0 mm 0.00 in0.0 mm 0.00 in0.0 mm
08:25 PM 48.0°F8.9°C 36.0°F2.2°C 63% 1.0 mph WSW1.6 kmh WSW 3.0 mph4.8 kmh 29.93 in1013.5 mb 0.00 in0.0 mm 0.00 in0.0 mm 0.00 in0.0 mm
08:30 PM 48.0°F8.9°C 36.3°F2.4°C 64% Calm Calm 3.0 mph4.8 kmh 29.93 in1013.5 mb 0.00 in0.0 mm 0.00 in0.0 mm 0.00 in0.0 mm
08:35 PM 48.0°F8.9°C 36.0°F2.2°C 63% Calm Calm 3.0 mph4.8 kmh 29.93 in1013.5 mb 0.00 in0.0 mm 0.00 in0.0 mm 0.00 in0.0 mm
08:40 PM 48.0°F8.9°C 36.0°F2.2°C 63% Calm Calm 3.0 mph4.8 kmh 29.94 in1013.9 mb 0.00 in0.0 mm 0.00 in0.0 mm 0.00 in0.0 mm
08:45 PM 48.2°F9.0°C 35.8°F2.1°C 62% 1.0 mph WSW1.6 kmh WSW 5.0 mph8.0 kmh 29.94 in1013.9 mb 0.00 in0.0 mm 0.00 in0.0 mm 0.00 in0.0 mm
08:50 PM 48.4°F9.1°C 36.0°F2.2°C 62% 1.0 mph WSW1.6 kmh WSW 5.0 mph8.0 kmh 29.94 in1013.9 mb 0.00 in0.0 mm 0.00 in0.0 mm 0.00 in0.0 mm
08:55 PM 48.4°F9.1°C 36.0°F2.2°C 62% 1.0 mph WNW1.6 kmh WNW 8.0 mph12.9 kmh 29.95 in1014.2 mb 0.00 in0.0 mm 0.00 in0.0 mm 0.00 in0.0 mm
09:00 PM 48.4°F9.1°C 36.0°F2.2°C 62% 2.0 mph WNW3.2 kmh WNW 8.0 mph12.9 kmh 29.95 in1014.2 mb 0.00 in0.0 mm 0.00 in0.0 mm 0.00 in0.0 mm
09:05 PM 48.4°F9.1°C 36.0°F2.2°C 62% 3.0 mph WNW4.8 kmh WNW 8.0 mph12.9 kmh 29.95 in1014.2 mb 0.00 in0.0 mm 0.00 in0.0 mm 0.00 in0.0 mm
09:10 PM 48.4°F9.1°C 36.3°F2.4°C 63% 3.0 mph NW4.8 kmh NW 11.0 mph17.7 kmh 29.96 in1014.6 mb 0.00 in0.0 mm 0.00 in0.0 mm 0.00 in0.0 mm
09:15 PM 47.8°F8.8°C 37.0°F2.8°C 66% 3.0 mph NW4.8 kmh NW 11.0 mph17.7 kmh 29.97 in1014.9 mb 0.00 in0.0 mm 0.00 in0.0 mm 0.00 in0.0 mm
09:20 PM 47.5°F8.6°C 37.4°F3.0°C 68% 4.0 mph NW6.4 kmh NW 13.0 mph20.9 kmh 29.97 in1014.9 mb 0.00 in0.0 mm 0.00 in0.0 mm 0.00 in0.0 mm
09:25 PM 47.1°F8.4°C 37.4°F3.0°C 69% 3.0 mph NW4.8 kmh NW 13.0 mph20.9 kmh 29.97 in1014.9 mb 0.00 in0.0 mm 0.00 in0.0 mm 0.00 in0.0 mm
09:30 PM 46.8°F8.2°C 37.4°F3.0°C 70% 2.0 mph NW3.2 kmh NW 9.0 mph14.5 kmh 29.98 in1015.2 mb 0.00 in0.0 mm 0.00 in0.0 mm 0.00 in0.0 mm
09:35 PM 46.2°F7.9°C 37.6°F3.1°C 72% 3.0 mph NW4.8 kmh NW 9.0 mph14.5 kmh 29.97 in1014.9 mb 0.00 in0.0 mm 0.00 in0.0 mm 0.00 in0.0 mm
09:40 PM 45.5°F7.5°C 37.4°F3.0°C 73% 5.0 mph NW8.0 kmh NW 9.0 mph14.5 kmh 29.97 in1014.9 mb 0.00 in0.0 mm 0.00 in0.0 mm 0.00 in0.0 mm
09:45 PM 45.1°F7.3°C 37.6°F3.1°C 75% 5.0 mph NW8.0 kmh NW 13.0 mph20.9 kmh 29.98 in1015.2 mb 0.00 in0.0 mm 0.00 in0.0 mm 0.00 in0.0 mm
09:50 PM 45.0°F7.2°C 37.4°F3.0°C 75% 5.0 mph NW8.0 kmh NW 13.0 mph20.9 kmh 29.98 in1015.2 mb 0.00 in0.0 mm 0.00 in0.0 mm 0.00 in0.0 mm
09:55 PM 44.8°F7.1°C 37.6°F3.1°C 76% 5.0 mph NW8.0 kmh NW 12.0 mph19.3 kmh 29.98 in1015.2 mb 0.00 in0.0 mm 0.00 in0.0 mm 0.00 in0.0 mm
10:00 PM 44.8°F7.1°C 37.6°F3.1°C 76% 3.0 mph NW4.8 kmh NW 9.0 mph14.5 kmh 29.98 in1015.2 mb 0.00 in0.0 mm 0.00 in0.0 mm 0.00 in0.0 mm
10:05 PM 44.8°F7.1°C 37.6°F3.1°C 76% 2.0 mph NW3.2 kmh NW 6.0 mph9.7 kmh 29.98 in1015.2 mb 0.00 in0.0 mm 0.00 in0.0 mm 0.00 in0.0 mm
10:10 PM 44.8°F7.1°C 37.6°F3.1°C 76% 2.0 mph NW3.2 kmh NW 6.0 mph9.7 kmh 29.98 in1015.2 mb 0.00 in0.0 mm 0.00 in0.0 mm 0.00 in0.0 mm
10:15 PM 44.8°F7.1°C 37.9°F3.3°C 77% 1.0 mph NW1.6 kmh NW 5.0 mph8.0 kmh 29.98 in1015.2 mb 0.00 in0.0 mm 0.00 in0.0 mm 0.00 in0.0 mm
10:20 PM 44.6°F7.0°C 37.8°F3.2°C 77% 1.0 mph NW1.6 kmh NW 6.0 mph9.7 kmh 29.98 in1015.2 mb 0.00 in0.0 mm 0.00 in0.0 mm 0.00 in0.0 mm
10:25 PM 44.6°F7.0°C 37.8°F3.2°C 77% 2.0 mph NW3.2 kmh NW 6.0 mph9.7 kmh 29.99 in1015.6 mb 0.00 in0.0 mm 0.00 in0.0 mm 0.00 in0.0 mm
10:30 PM 44.6°F7.0°C 37.8°F3.2°C 77% 2.0 mph NW3.2 kmh NW 6.0 mph9.7 kmh 29.99 in1015.6 mb 0.00 in0.0 mm 0.00 in0.0 mm 0.00 in0.0 mm
10:35 PM 44.6°F7.0°C 37.8°F3.2°C 77% 1.0 mph NW1.6 kmh NW 6.0 mph9.7 kmh 29.99 in1015.6 mb 0.00 in0.0 mm 0.00 in0.0 mm 0.00 in0.0 mm
10:40 PM 44.6°F7.0°C 37.8°F3.2°C 77% 1.0 mph NW1.6 kmh NW 6.0 mph9.7 kmh 30.00 in1015.9 mb 0.00 in0.0 mm 0.00 in0.0 mm 0.00 in0.0 mm
10:45 PM 44.6°F7.0°C 37.8°F3.2°C 77% 1.0 mph NW1.6 kmh NW 5.0 mph8.0 kmh 30.00 in1015.9 mb 0.00 in0.0 mm 0.00 in0.0 mm 0.00 in0.0 mm
10:50 PM 44.6°F7.0°C 37.8°F3.2°C 77% 2.0 mph NW3.2 kmh NW 8.0 mph12.9 kmh 30.00 in1015.9 mb 0.00 in0.0 mm 0.00 in0.0 mm 0.00 in0.0 mm
10:55 PM 44.4°F6.9°C 37.8°F3.2°C 77% 2.0 mph NW3.2 kmh NW 8.0 mph12.9 kmh 30.00 in1015.9 mb 0.00 in0.0 mm 0.00 in0.0 mm 0.00 in0.0 mm
11:00 PM 44.4°F6.9°C 37.8°F3.2°C 77% 2.0 mph NW3.2 kmh NW 9.0 mph14.5 kmh 30.00 in1015.9 mb 0.00 in0.0 mm 0.00 in0.0 mm 0.00 in0.0 mm
11:05 PM 44.4°F6.9°C 37.6°F3.1°C 77% 3.0 mph NW4.8 kmh NW 9.0 mph14.5 kmh 30.01 in1016.3 mb 0.00 in0.0 mm 0.00 in0.0 mm 0.00 in0.0 mm
11:10 PM 44.4°F6.9°C 37.9°F3.3°C 78% 3.0 mph NW4.8 kmh NW 8.0 mph12.9 kmh 30.01 in1016.3 mb 0.00 in0.0 mm 0.00 in0.0 mm 0.00 in0.0 mm
11:15 PM 44.4°F6.9°C 37.9°F3.3°C 78% 3.0 mph NW4.8 kmh NW 7.0 mph11.3 kmh 30.01 in1016.3 mb 0.00 in0.0 mm 0.00 in0.0 mm 0.00 in0.0 mm
11:20 PM 44.2°F6.8°C 37.9°F3.3°C 78% 2.0 mph NW3.2 kmh NW 11.0 mph17.7 kmh 30.01 in1016.3 mb 0.00 in0.0 mm 0.00 in0.0 mm 0.00 in0.0 mm
11:25 PM 44.2°F6.8°C 37.9°F3.3°C 78% 2.0 mph NW3.2 kmh NW 11.0 mph17.7 kmh 30.01 in1016.3 mb 0.00 in0.0 mm 0.00 in0.0 mm 0.00 in0.0 mm
11:30 PM 44.2°F6.8°C 38.1°F3.4°C 79% 2.0 mph W3.2 kmh W 10.0 mph16.1 kmh 30.01 in1016.3 mb 0.00 in0.0 mm 0.00 in0.0 mm 0.00 in0.0 mm
11:35 PM 44.1°F6.7°C 38.3°F3.5°C 80% 1.0 mph WSW1.6 kmh WSW 7.0 mph11.3 kmh 30.01 in1016.3 mb 0.00 in0.0 mm 0.00 in0.0 mm 0.00 in0.0 mm
11:40 PM 43.9°F6.6°C 38.3°F3.5°C 81% 1.0 mph WNW1.6 kmh WNW 7.0 mph11.3 kmh 30.01 in1016.3 mb 0.00 in0.0 mm 0.00 in0.0 mm 0.00 in0.0 mm
11:45 PM 43.5°F6.4°C 38.1°F3.4°C 81% 1.0 mph WNW1.6 kmh WNW 5.0 mph8.0 kmh 30.01 in1016.3 mb 0.00 in0.0 mm 0.00 in0.0 mm 0.00 in0.0 mm
11:50 PM 43.5°F6.4°C 38.1°F3.4°C 81% 1.0 mph W1.6 kmh W 5.0 mph8.0 kmh 30.01 in1016.3 mb 0.00 in0.0 mm 0.00 in0.0 mm 0.00 in0.0 mm
11:55 PM 43.3°F6.3°C 37.9°F3.3°C 81% Calm Calm 4.0 mph6.4 kmh 30.01 in1016.3 mb 0.00 in0.0 mm 0.00 in0.0 mm 0.00 in0.0 mm